Airfield :
LOGIN :

Register | Disclaimer

   EN    FR    IT 

 










Legend :    VFR   Marginal VFR   IFR   Intensive IFR   Very Intensive IFR
Visi :
Ceiling :
>= 8 km
>= 3000ft
5 to 8 km
1000 to 3000 ft
1500m to 5 km
500 to 1000 ft
800 to 1500m
200 to 500 ft
< 800m
< 200 ft
Symbols :   Thunderstorms  Fog  Heavy snow  Heavy precipitations  Wind > 20 kt
SIGMETs :     Misc.  Thunderstorms  Icing  Turbulence  Mountain Waves  Volcanic Ashes







- Airport Elevation : 56 ft
- IATA code : TRD


ENVA - Trondheim , Værnes

CURRENT METAR :
  • 261220Z 28011KT 9999 SCT033 BKN150 14/07 Q1022 NOSIG RMK WIND 670FT 30013KT

EXPIRED METARs :
  • 261150Z 29011KT 9999 SCT033 BKN150 14/07 Q1022 NOSIG RMK WIND 670FT 30012KT
  • 261120Z 29013KT 9999 SCT036 BKN150 15/08 Q1022 NOSIG RMK WIND 670FT 30012KT
  • 261050Z 28011KT 9999 SCT031 BKN082 14/07 Q1022 NOSIG RMK WIND 670FT 30010KT
  • 261020Z 27010KT 9999 SCT027 BKN082 13/07 Q1022 NOSIG RMK WIND 670FT 29011KT
  • 260950Z 27010KT 9999 SCT027 BKN180 13/06 Q1023 NOSIG RMK WIND 670FT 30011KT

TAF TAF ENVA
Valid from the 26 at 12:00 until the 27 at 12:00 UTC


2612/2712 28015KT 9999 SCT030 BKN080
BECMG 2621/2623 BKN012
TEMPO 2621/2706 28015G25KT RA BKN008
No reported NOTAMs for that airfield.



MET'MAP, your aeronautical weather chart ! - Copyright ORBIFLY December 2007 - Disclaimer

ORBIFLY MET'MAP TEAM :

Programming & Development : Alexandra Zaïnal
Concept & Development : Baudouin d'Aumeries
Co-Development & Prog : Marc-Olivier Méhu
Technical & hardware support : Manuel Goepfert

Contact : metmap@orbifly.com




SOURCES & CREDITS :

   NOAA